Time;durP1;ratioP1;P1;durP2;ratioP2;P2;SDS_P1;SDS_P2;PMS_P1;PMS_P2;Temp;Humidity;BMP_temperature;BMP_pressure;BME280_temperature;BME280_humidity;BME280_pressure;Samples;Min_cycle;Max_cycle;Signal;HPM_P1;HPM_P2
2022/03/17 00:01:35;;;;;;;26.02;19.92;;;7.20;99.90;;;;;;4898951;29;20243;-79
2022/03/17 00:04:36;;;;;;;27.52;20.90;;;7.20;99.90;;;;;;4898474;29;20200;-79
2022/03/17 00:07:02;;;;;;;53.28;26.05;;;7.20;99.90;;;;;;4899452;29;20183;-78
2022/03/17 00:09:28;;;;;;;50.70;25.15;;;7.20;99.90;;;;;;4898817;29;20179;-79
2022/03/17 00:11:54;;;;;;;37.22;23.38;;;7.20;99.90;;;;;;4898515;29;20183;-78
2022/03/17 00:14:20;;;;;;;36.90;22.70;;;7.20;99.90;;;;;;4899547;29;20227;-78
2022/03/17 00:16:46;;;;;;;30.80;21.15;;;7.10;99.90;;;;;;4898327;29;20223;-78
2022/03/17 00:19:11;;;;;;;28.33;20.63;;;7.20;99.90;;;;;;4898722;29;20179;-78
2022/03/17 00:21:38;;;;;;;28.92;21.15;;;7.20;99.90;;;;;;4898821;29;20185;-79
2022/03/17 00:24:07;;;;;;;26.13;20.35;;;7.10;99.90;;;;;;4898398;29;20187;-79
2022/03/17 00:26:34;;;;;;;28.00;20.67;;;7.10;99.90;;;;;;4898288;29;20199;-79
2022/03/17 00:29:02;;;;;;;26.35;20.70;;;7.10;99.90;;;;;;4899057;29;20184;-78
2022/03/17 00:31:28;;;;;;;27.00;20.25;;;7.00;99.90;;;;;;4898963;29;20227;-79
2022/03/17 00:33:54;;;;;;;29.20;19.63;;;6.90;99.90;;;;;;4899798;29;20184;-79
2022/03/17 00:36:19;;;;;;;27.02;20.58;;;6.80;99.90;;;;;;4898557;29;20572;-79
2022/03/17 00:38:45;;;;;;;28.20;20.45;;;6.80;99.90;;;;;;4899545;29;20250;-79
2022/03/17 00:41:11;;;;;;;29.23;19.65;;;6.70;99.90;;;;;;4898847;29;20183;-79
2022/03/17 00:43:37;;;;;;;28.75;20.65;;;6.60;99.90;;;;;;4898787;29;20208;-79
2022/03/17 00:46:02;;;;;;;26.02;20.48;;;6.60;99.90;;;;;;4898788;29;20196;-78
2022/03/17 00:48:29;;;;;;;30.70;20.95;;;6.50;99.90;;;;;;4898640;29;20190;-78
2022/03/17 00:50:55;;;;;;;26.60;19.85;;;6.50;99.90;;;;;;4899442;29;20188;-78
2022/03/17 00:53:20;;;;;;;39.60;26.33;;;6.50;99.90;;;;;;4898615;29;20200;-79
2022/03/17 00:55:46;;;;;;;34.08;23.08;;;6.50;99.90;;;;;;4899723;29;20218;-79
2022/03/17 00:58:11;;;;;;;34.25;23.27;;;6.60;99.90;;;;;;4903111;29;20222;-79
2022/03/17 01:00:37;;;;;;;32.90;22.48;;;6.70;99.90;;;;;;4901754;29;20191;-78
2022/03/17 01:03:05;;;;;;;41.85;26.60;;;6.70;99.90;;;;;;4901875;29;20192;-78
2022/03/17 01:05:31;;;;;;;32.78;22.77;;;6.80;99.90;;;;;;4901890;29;20199;-78
2022/03/17 01:07:56;;;;;;;28.08;21.25;;;6.80;99.90;;;;;;4901852;29;20266;-79
2022/03/17 01:10:22;;;;;;;33.63;22.48;;;6.90;99.90;;;;;;4901800;29;20191;-78
2022/03/17 01:12:50;;;;;;;35.90;23.92;;;7.00;99.90;;;;;;4901818;29;20187;-78
2022/03/17 01:15:17;;;;;;;42.50;24.92;;;7.00;99.90;;;;;;4902411;29;20258;-78
2022/03/17 01:17:43;;;;;;;33.88;22.90;;;7.00;99.90;;;;;;4902811;29;20215;-78
2022/03/17 01:20:11;;;;;;;30.90;20.93;;;6.70;99.90;;;;;;4901770;29;20194;-78
2022/03/17 01:22:36;;;;;;;29.20;22.00;;;6.40;99.90;;;;;;4901781;29;20252;-78
2022/03/17 01:25:04;;;;;;;31.57;19.90;;;6.40;99.90;;;;;;4905482;29;20666;-78
2022/03/17 01:27:29;;;;;;;27.47;21.90;;;6.30;99.90;;;;;;4904386;29;20188;-78
2022/03/17 01:29:55;;;;;;;29.00;21.20;;;6.10;99.90;;;;;;4904460;29;20194;-78
2022/03/17 01:32:22;;;;;;;30.50;21.63;;;6.00;99.90;;;;;;4903436;29;20183;-78
2022/03/17 01:34:48;;;;;;;31.87;22.03;;;6.00;99.90;;;;;;4903953;29;20197;-78
2022/03/17 01:37:14;;;;;;;31.93;22.90;;;5.90;99.90;;;;;;4903185;29;20323;-78
2022/03/17 01:39:40;;;;;;;32.27;22.50;;;5.80;99.90;;;;;;4903146;29;20191;-78
2022/03/17 01:42:08;;;;;;;29.40;22.20;;;5.80;99.90;;;;;;4902944;29;20190;-78
2022/03/17 01:44:35;;;;;;;28.43;22.23;;;5.90;99.90;;;;;;4903417;29;20219;-78
2022/03/17 01:49:46;;;;;;;30.13;22.57;;;6.10;99.90;;;;;;4904023;29;20220;-78
2022/03/17 01:52:11;;;;;;;28.07;22.00;;;6.10;99.90;;;;;;4903180;29;20184;-78
2022/03/17 01:54:38;;;;;;;33.00;22.33;;;6.10;99.90;;;;;;4903269;29;20562;-78
2022/03/17 01:57:06;;;;;;;26.33;21.10;;;6.10;99.90;;;;;;4903298;29;20235;-79
2022/03/17 01:59:33;;;;;;;27.33;19.63;;;6.00;99.90;;;;;;4903551;29;20232;-79
2022/03/17 02:01:59;;;;;;;26.40;19.60;;;6.00;99.90;;;;;;4903056;29;20239;-79
2022/03/17 02:04:25;;;;;;;28.63;20.93;;;5.90;99.90;;;;;;4904281;29;20168;-79
2022/03/17 02:06:51;;;;;;;28.60;21.47;;;5.80;99.90;;;;;;4902960;29;20204;-78
2022/03/17 02:09:19;;;;;;;26.63;20.80;;;5.70;99.90;;;;;;4902716;29;20268;-78
2022/03/17 02:14:34;;;;;;;29.37;22.53;;;5.70;99.90;;;;;;4903595;29;20182;-78
2022/03/17 02:17:00;;;;;;;27.43;21.43;;;5.70;99.90;;;;;;4903531;29;20195;-78
2022/03/17 02:19:26;;;;;;;25.63;20.40;;;5.70;99.90;;;;;;4902344;29;20270;-78
2022/03/17 02:21:52;;;;;;;27.70;20.63;;;5.80;99.90;;;;;;4902778;29;20180;-78
2022/03/17 02:27:03;;;;;;;24.63;20.53;;;5.80;99.90;;;;;;4903823;29;20179;-78
2022/03/17 02:29:30;;;;;;;29.50;21.67;;;5.80;99.90;;;;;;4902844;29;20183;-78
2022/03/17 02:31:56;;;;;;;28.33;21.10;;;5.80;99.90;;;;;;4901044;29;20184;-78
2022/03/17 02:34:22;;;;;;;28.37;22.10;;;5.80;99.90;;;;;;4900801;29;20187;-78
2022/03/17 02:36:49;;;;;;;28.60;21.10;;;5.70;99.90;;;;;;4900649;29;20259;-78
2022/03/17 02:39:16;;;;;;;26.57;20.70;;;5.80;99.90;;;;;;4901863;29;20188;-78
2022/03/17 02:41:42;;;;;;;29.17;22.30;;;5.90;99.90;;;;;;4901872;29;20176;-78
2022/03/17 02:44:09;;;;;;;27.33;21.20;;;5.90;99.90;;;;;;4902643;29;20168;-78
2022/03/17 02:46:34;;;;;;;29.27;21.10;;;5.90;99.90;;;;;;4901198;29;20199;-78
2022/03/17 02:49:00;;;;;;;27.47;19.23;;;5.80;99.90;;;;;;4900640;29;20246;-78
2022/03/17 02:51:26;;;;;;;27.40;19.83;;;5.70;99.90;;;;;;4901034;29;20187;-78
2022/03/17 02:53:51;;;;;;;29.37;21.00;;;5.70;99.90;;;;;;4901116;29;20188;-78
2022/03/17 02:56:17;;;;;;;29.00;20.17;;;5.70;99.90;;;;;;4901567;29;20291;-78
2022/03/17 02:58:42;;;;;;;29.17;20.57;;;5.70;99.90;;;;;;4901129;29;20215;-78
2022/03/17 03:01:08;;;;;;;27.27;19.17;;;5.70;99.90;;;;;;4900573;29;20222;-78
2022/03/17 03:03:33;;;;;;;31.03;22.20;;;5.40;99.90;;;;;;4900791;29;20183;-78
2022/03/17 03:05:59;;;;;;;33.50;22.63;;;5.40;99.90;;;;;;4900726;29;20200;-78
2022/03/17 03:08:24;;;;;;;31.13;22.30;;;5.50;99.90;;;;;;4900300;29;20283;-78
2022/03/17 03:10:50;;;;;;;33.33;22.80;;;5.50;99.90;;;;;;4902349;29;20184;-78
2022/03/17 03:13:16;;;;;;;32.73;23.77;;;5.50;99.90;;;;;;4900877;29;20275;-78
2022/03/17 03:15:42;;;;;;;38.90;26.03;;;5.50;99.90;;;;;;4901207;29;20215;-78
2022/03/17 03:18:07;;;;;;;32.73;22.70;;;5.40;99.90;;;;;;4901700;29;20210;-78
2022/03/17 03:20:33;;;;;;;31.47;22.80;;;5.30;99.90;;;;;;4900114;29;20330;-78
2022/03/17 03:22:59;;;;;;;28.40;20.93;;;5.20;99.90;;;;;;4901590;29;20171;-78
2022/03/17 03:25:29;;;;;;;35.80;24.90;;;5.30;99.90;;;;;;4899598;29;20199;-78
2022/03/17 03:27:54;;;;;;;39.07;25.33;;;5.30;99.90;;;;;;4900202;29;20176;-78
2022/03/17 03:30:20;;;;;;;36.00;24.37;;;5.40;99.90;;;;;;4899685;29;20239;-78
2022/03/17 03:32:47;;;;;;;35.20;24.43;;;5.40;99.90;;;;;;4900693;29;20240;-78
2022/03/17 03:37:58;;;;;;;28.30;21.13;;;5.50;99.90;;;;;;4901324;29;20277;-78
2022/03/17 03:40:25;;;;;;;29.80;21.77;;;5.60;99.90;;;;;;4900420;29;20611;-78
2022/03/17 03:42:51;;;;;;;28.53;20.70;;;5.50;99.90;;;;;;4900672;29;20180;-78
2022/03/17 03:45:17;;;;;;;26.23;20.70;;;5.60;99.90;;;;;;4899577;29;20207;-78
2022/03/17 03:47:42;;;;;;;26.70;20.53;;;5.60;99.90;;;;;;4899741;29;20187;-78
2022/03/17 03:50:09;;;;;;;28.50;20.57;;;5.60;99.90;;;;;;4901257;29;20380;-78
2022/03/17 03:52:34;;;;;;;26.37;20.47;;;5.70;99.90;;;;;;4901013;29;20187;-78
2022/03/17 03:55:00;;;;;;;29.17;21.23;;;5.70;99.90;;;;;;4899663;29;20212;-78
2022/03/17 03:57:26;;;;;;;26.83;20.60;;;5.70;99.90;;;;;;4899903;29;20264;-78
2022/03/17 03:59:52;;;;;;;26.70;20.63;;;5.70;99.90;;;;;;4900660;29;20183;-78
2022/03/17 04:02:18;;;;;;;32.40;22.10;;;5.70;99.90;;;;;;4899657;29;20234;-78
2022/03/17 04:04:43;;;;;;;35.23;25.90;;;5.50;99.90;;;;;;4900653;29;20172;-78
2022/03/17 04:07:10;;;;;;;36.93;25.33;;;5.50;99.90;;;;;;4899871;29;20179;-78
2022/03/17 04:09:39;;;;;;;36.77;24.67;;;5.50;99.90;;;;;;4899029;29;20304;-78
2022/03/17 04:12:07;;;;;;;34.07;24.10;;;5.40;99.90;;;;;;4900089;29;20258;-78
2022/03/17 04:14:33;;;;;;;32.70;23.37;;;5.50;99.90;;;;;;4899028;29;20184;-77
2022/03/17 04:16:59;;;;;;;33.13;24.10;;;5.50;99.90;;;;;;4899438;29;20222;-78
2022/03/17 04:19:25;;;;;;;36.17;25.57;;;5.50;99.90;;;;;;4899546;29;20176;-78
2022/03/17 04:21:51;;;;;;;31.80;22.70;;;5.40;99.90;;;;;;4899290;29;20179;-78
2022/03/17 04:24:17;;;;;;;34.23;24.53;;;5.40;99.90;;;;;;4899364;29;20184;-78
2022/03/17 04:26:44;;;;;;;30.90;24.13;;;5.40;99.90;;;;;;4899128;29;20243;-78
2022/03/17 04:29:10;;;;;;;36.67;24.90;;;5.50;99.90;;;;;;4899225;29;20606;-78
2022/03/17 04:31:38;;;;;;;36.17;26.70;;;5.50;99.90;;;;;;4899587;29;20179;-78
2022/03/17 04:34:03;;;;;;;36.20;24.87;;;5.40;99.90;;;;;;4900642;29;20274;-78
2022/03/17 04:36:31;;;;;;;35.43;24.83;;;5.40;99.90;;;;;;4899155;29;20259;-78
2022/03/17 04:38:57;;;;;;;37.57;26.33;;;5.50;99.90;;;;;;4898830;29;20618;-78
2022/03/17 04:41:22;;;;;;;41.00;28.30;;;5.40;99.90;;;;;;4898689;29;20187;-78
2022/03/17 04:43:48;;;;;;;48.10;32.93;;;5.40;99.90;;;;;;4899513;29;20183;-78
2022/03/17 04:46:14;;;;;;;57.87;38.13;;;5.40;99.90;;;;;;4899596;29;20199;-78
2022/03/17 04:48:40;;;;;;;80.87;53.80;;;5.30;99.90;;;;;;4898707;29;20186;-78
2022/03/17 04:51:06;;;;;;;74.07;49.73;;;5.30;99.90;;;;;;4898305;29;20566;-78
2022/03/17 04:53:32;;;;;;;60.47;40.67;;;5.20;99.90;;;;;;4898671;29;20183;-78
2022/03/17 04:56:09;;;;;;;57.67;40.80;;;5.20;99.90;;;;;;4898508;29;20208;-78
2022/03/17 04:58:37;;;;;;;59.10;38.83;;;5.30;99.90;;;;;;4899021;29;20207;-78
2022/03/17 05:01:04;;;;;;;50.27;35.63;;;5.30;99.90;;;;;;4899803;29;20179;-78
2022/03/17 05:03:30;;;;;;;44.43;31.83;;;5.40;99.90;;;;;;4898562;29;20184;-78
2022/03/17 05:05:56;;;;;;;46.37;31.57;;;5.50;99.90;;;;;;4898581;29;20203;-78
2022/03/17 05:08:22;;;;;;;37.87;27.40;;;5.50;99.90;;;;;;4899928;29;20192;-78
2022/03/17 05:10:48;;;;;;;35.87;25.10;;;5.50;99.90;;;;;;4898361;29;20188;-78
2022/03/17 05:13:16;;;;;;;34.40;25.53;;;5.50;99.90;;;;;;4899067;29;20255;-78
2022/03/17 05:15:47;;;;;;;29.00;21.83;;;5.40;99.90;;;;;;4898835;29;20207;-79
2022/03/17 05:18:13;;;;;;;29.67;23.30;;;5.40;99.90;;;;;;4899901;29;20200;-78
2022/03/17 05:20:43;;;;;;;30.33;22.37;;;5.40;99.90;;;;;;4898802;29;20202;-78
2022/03/17 05:23:11;;;;;;;29.50;22.20;;;5.40;99.90;;;;;;4899999;29;20558;-78
2022/03/17 05:25:39;;;;;;;29.90;24.17;;;5.40;99.90;;;;;;4899827;29;20192;-78
2022/03/17 05:28:06;;;;;;;29.83;23.20;;;5.40;99.90;;;;;;4898362;29;20192;-79
2022/03/17 05:30:32;;;;;;;31.30;22.73;;;5.40;99.90;;;;;;4898098;29;20188;-78
2022/03/17 05:32:58;;;;;;;28.23;21.03;;;5.50;99.90;;;;;;4898658;29;20270;-78
2022/03/17 05:35:24;;;;;;;32.33;22.17;;;5.50;99.90;;;;;;4899993;29;20259;-78
2022/03/17 05:37:50;;;;;;;46.03;32.43;;;5.50;99.90;;;;;;4899198;29;20223;-78
2022/03/17 05:40:18;;;;;;;28.63;20.90;;;5.40;99.90;;;;;;4899939;29;20180;-78
2022/03/17 05:42:49;;;;;;;33.37;23.63;;;5.30;99.90;;;;;;4898713;29;20183;-78
2022/03/17 05:45:16;;;;;;;38.97;26.57;;;5.40;99.90;;;;;;4901320;29;20208;-78
2022/03/17 05:47:50;;;;;;;118.37;63.30;;;5.40;99.90;;;;;;4901726;29;20239;-80
2022/03/17 05:50:21;;;;;;;83.67;49.07;;;5.40;99.90;;;;;;4901767;29;20218;-78
2022/03/17 05:52:47;;;;;;;46.37;31.20;;;5.40;99.90;;;;;;4902960;29;20175;-78
2022/03/17 05:55:15;;;;;;;53.87;34.43;;;5.30;99.90;;;;;;4901533;29;20275;-78
2022/03/17 05:57:42;;;;;;;52.97;35.13;;;5.40;99.90;;;;;;4901294;29;20219;-78
2022/03/17 06:00:10;;;;;;;47.70;32.10;;;5.40;99.90;;;;;;4901149;29;20656;-78
2022/03/17 06:02:37;;;;;;;40.60;29.17;;;5.40;99.90;;;;;;4901230;29;20183;-78
2022/03/17 06:05:04;;;;;;;41.87;30.93;;;5.50;99.90;;;;;;4901515;29;20288;-78
2022/03/17 06:07:36;;;;;;;44.73;31.27;;;5.50;99.90;;;;;;4901074;29;20198;-78
2022/03/17 06:10:06;;;;;;;51.33;34.03;;;5.50;99.90;;;;;;4901639;29;20187;-78
2022/03/17 06:12:32;;;;;;;46.43;32.90;;;5.70;99.90;;;;;;4900991;29;20195;-78
2022/03/17 06:14:58;;;;;;;45.03;32.10;;;5.70;99.90;;;;;;4901207;29;20227;-78
2022/03/17 06:17:55;;;;;;;44.93;32.43;;;5.70;99.90;;;;;;4900771;29;20215;-78
2022/03/17 06:20:27;;;;;;;45.67;31.43;;;5.80;99.90;;;;;;4901712;29;20187;-78
2022/03/17 06:22:54;;;;;;;36.70;28.13;;;5.80;99.90;;;;;;4900917;29;20184;-78
2022/03/17 06:25:22;;;;;;;38.10;27.10;;;5.80;99.90;;;;;;4900876;29;20291;-78
2022/03/17 06:27:49;;;;;;;30.27;23.27;;;5.90;99.90;;;;;;4900594;29;20188;-78
2022/03/17 06:30:20;;;;;;;29.53;22.80;;;5.90;99.90;;;;;;4900817;29;20258;-78
2022/03/17 06:32:46;;;;;;;30.80;24.03;;;6.00;99.90;;;;;;4901772;29;20178;-78
2022/03/17 06:35:17;;;;;;;32.93;21.80;;;6.00;99.90;;;;;;4901361;29;20231;-78
2022/03/17 06:37:48;;;;;;;29.90;22.67;;;6.00;99.90;;;;;;4900247;29;20698;-78
2022/03/17 06:40:15;;;;;;;31.30;22.38;;;6.00;99.90;;;;;;4900216;29;20210;-78
2022/03/17 06:42:42;;;;;;;27.83;21.63;;;6.00;99.90;;;;;;4901565;29;20186;-78
2022/03/17 06:45:08;;;;;;;28.02;21.75;;;6.10;99.90;;;;;;4900262;29;20211;-78
2022/03/17 06:47:53;;;;;;;28.40;21.73;;;6.10;99.90;;;;;;4900005;29;20183;-78
2022/03/17 06:50:22;;;;;;;29.70;21.57;;;6.00;99.90;;;;;;4900098;29;20175;-78
2022/03/17 06:52:49;;;;;;;30.57;23.03;;;6.00;99.90;;;;;;4901379;29;20247;-78
2022/03/17 06:55:15;;;;;;;28.87;22.83;;;5.90;99.90;;;;;;4899702;29;20208;-78
2022/03/17 06:57:41;;;;;;;26.43;21.50;;;5.90;99.90;;;;;;4899451;29;20347;-78
2022/03/17 07:00:10;;;;;;;24.33;20.60;;;5.90;99.90;;;;;;4899838;29;20227;-78
2022/03/17 07:02:36;;;;;;;29.47;21.77;;;5.90;99.90;;;;;;4900528;29;20179;-78
2022/03/17 07:05:02;;;;;;;28.37;21.50;;;5.90;99.90;;;;;;4899824;29;20266;-78
2022/03/17 07:07:28;;;;;;;28.80;22.63;;;5.80;99.90;;;;;;4899507;29;20694;-78
2022/03/17 07:09:54;;;;;;;28.50;22.37;;;5.80;99.90;;;;;;4899629;29;20191;-78
2022/03/17 07:12:20;;;;;;;29.20;22.10;;;5.90;99.90;;;;;;4899642;29;20240;-78
2022/03/17 07:14:45;;;;;;;27.63;21.53;;;6.00;99.90;;;;;;4899886;29;20192;-78
2022/03/17 07:17:11;;;;;;;31.83;22.35;;;6.10;99.90;;;;;;4899171;29;20254;-78
2022/03/17 07:19:36;;;;;;;28.85;21.73;;;6.20;99.90;;;;;;4899760;29;20562;-78
2022/03/17 07:22:03;;;;;;;31.90;23.33;;;6.30;99.90;;;;;;4899406;29;20315;-78
2022/03/17 07:24:29;;;;;;;34.88;26.00;;;6.30;99.90;;;;;;4900375;29;20180;-78
2022/03/17 07:26:55;;;;;;;35.10;26.55;;;6.30;99.90;;;;;;4899493;29;20214;-78
2022/03/17 07:29:20;;;;;;;40.63;27.75;;;6.20;99.90;;;;;;4899745;29;20188;-78
2022/03/17 07:31:46;;;;;;;37.90;29.17;;;6.20;99.90;;;;;;4899055;29;20215;-78
2022/03/17 07:34:12;;;;;;;38.88;31.10;;;6.20;99.90;;;;;;4899301;29;20191;-78
2022/03/17 07:36:40;;;;;;;50.17;38.08;;;6.30;99.90;;;;;;4899200;29;20252;-78
2022/03/17 07:39:06;;;;;;;57.05;44.22;;;6.50;99.90;;;;;;4898719;29;20215;-83
2022/03/17 07:41:32;;;;;;;53.65;42.30;;;6.50;99.90;;;;;;4900294;29;20183;-78
2022/03/17 07:43:57;;;;;;;44.70;32.90;;;6.50;99.90;;;;;;4899335;29;20179;-78
2022/03/17 07:46:23;;;;;;;43.83;32.43;;;6.30;99.90;;;;;;4898808;29;20211;-78
2022/03/17 07:48:49;;;;;;;48.60;35.87;;;6.30;99.90;;;;;;4899082;29;20210;-77
2022/03/17 07:51:15;;;;;;;54.45;41.15;;;6.30;99.90;;;;;;4898706;29;20294;-78
2022/03/17 07:53:40;;;;;;;76.43;51.38;;;6.50;99.90;;;;;;4898726;29;20211;-78
2022/03/17 07:56:08;;;;;;;67.35;46.92;;;6.70;99.90;;;;;;4898797;29;20255;-78
2022/03/17 07:58:34;;;;;;;69.70;51.08;;;6.90;99.90;;;;;;4898405;29;20734;-78
2022/03/17 08:01:00;;;;;;;61.58;43.05;;;6.90;99.90;;;;;;4898213;29;20225;-78
2022/03/17 08:03:27;;;;;;;49.90;38.70;;;7.10;99.90;;;;;;4898530;29;20171;-78
2022/03/17 08:05:53;;;;;;;49.22;33.30;;;7.00;99.90;;;;;;4898373;29;20195;-78
2022/03/17 08:08:19;;;;;;;39.60;31.55;;;7.10;99.90;;;;;;4897984;29;20180;-78
2022/03/17 08:10:45;;;;;;;44.28;32.75;;;7.20;99.90;;;;;;4898474;29;20237;-78
2022/03/17 08:13:11;;;;;;;50.53;35.75;;;7.40;99.90;;;;;;4898088;29;20282;-78
2022/03/17 08:15:38;;;;;;;43.58;34.75;;;7.60;99.90;;;;;;4899467;29;20718;-78
2022/03/17 08:18:06;;;;;;;45.28;34.33;;;7.70;99.90;;;;;;4898491;29;20208;-78
2022/03/17 08:20:32;;;;;;;43.45;32.13;;;7.70;99.90;;;;;;4898181;29;20602;-78
2022/03/17 08:22:57;;;;;;;43.50;33.63;;;7.80;99.90;;;;;;4898208;29;20239;-78
2022/03/17 08:25:23;;;;;;;40.83;31.98;;;7.90;99.90;;;;;;4898131;29;20227;-78
2022/03/17 08:27:52;;;;;;;49.28;37.33;;;8.00;99.90;;;;;;4897889;29;20198;-78
2022/03/17 08:30:18;;;;;;;43.90;34.22;;;8.00;99.90;;;;;;4897983;29;20212;-78
2022/03/17 08:32:43;;;;;;;47.50;36.30;;;7.90;99.90;;;;;;4898094;29;20192;-78
2022/03/17 08:35:14;;;;;;;46.50;37.60;;;8.00;99.90;;;;;;4897748;29;20217;-78
2022/03/17 08:37:43;;;;;;;46.20;36.90;;;8.00;99.90;;;;;;4898938;29;20187;-78
2022/03/17 08:40:10;;;;;;;45.72;35.88;;;8.00;99.90;;;;;;4899206;29;20187;-78
2022/03/17 08:42:36;;;;;;;42.33;34.28;;;8.10;99.90;;;;;;4899631;29;20235;-78
2022/03/17 08:49:18;;;;;;;40.88;32.55;;;8.20;99.90;;;;;;4898025;29;20203;-78
2022/03/17 08:50:33;;;;;;;40.60;29.52;;;8.30;99.90;;;;;;4899268;29;20198;-78
2022/03/17 08:52:59;;;;;;;35.95;29.55;;;8.40;99.90;;;;;;4898201;29;20278;-77
2022/03/17 08:55:25;;;;;;;32.28;27.75;;;8.50;99.90;;;;;;4898179;29;20218;-78
2022/03/17 08:57:51;;;;;;;36.85;27.23;;;8.80;99.90;;;;;;4899031;29;20211;-78
2022/03/17 09:00:17;;;;;;;31.85;26.77;;;9.00;99.90;;;;;;4898122;29;20180;-78
2022/03/17 09:02:44;;;;;;;31.80;26.48;;;9.30;99.90;;;;;;4898820;29;20164;-78
2022/03/17 09:05:13;;;;;;;34.95;28.98;;;9.40;99.90;;;;;;4897176;29;20203;-78
2022/03/17 09:07:39;;;;;;;42.00;31.20;;;9.40;99.90;;;;;;4897639;29;20655;-78
2022/03/17 09:10:05;;;;;;;38.17;29.85;;;9.50;99.90;;;;;;4896860;29;20730;-77
2022/03/17 09:12:33;;;;;;;37.38;29.85;;;9.70;99.90;;;;;;4896979;29;20685;-78
2022/03/17 09:14:59;;;;;;;33.30;27.38;;;9.80;99.90;;;;;;4897010;29;20203;-77
2022/03/17 09:17:25;;;;;;;35.60;28.48;;;9.70;99.90;;;;;;4899056;29;20200;-77
2022/03/17 09:19:51;;;;;;;34.70;28.23;;;9.70;99.90;;;;;;4900775;29;20183;-76
2022/03/17 09:22:23;;;;;;;34.45;29.30;;;9.60;99.90;;;;;;4901268;29;20180;-76
2022/03/17 09:24:49;;;;;;;33.03;26.40;;;9.70;99.90;;;;;;4900305;29;20208;-76
2022/03/17 09:27:17;;;;;;;33.75;28.63;;;9.80;99.90;;;;;;4901440;29;20210;-76
2022/03/17 09:29:43;;;;;;;38.78;28.35;;;10.10;99.90;;;;;;4901300;29;20250;-76
2022/03/17 09:32:13;;;;;;;32.58;28.05;;;10.00;99.90;;;;;;4900333;29;20409;-76
2022/03/17 09:34:39;;;;;;;35.40;29.13;;;10.20;99.90;;;;;;4900023;29;20183;-76
2022/03/17 09:37:04;;;;;;;32.47;28.92;;;10.30;98.50;;;;;;4899855;29;20243;-77
2022/03/17 09:39:45;;;;;;;34.67;27.77;;;10.40;97.90;;;;;;4899851;29;20710;-76
2022/03/17 09:42:15;;;;;;;34.50;28.92;;;10.60;97.70;;;;;;4901137;29;20158;-76
2022/03/17 09:45:17;;;;;;;32.08;27.30;;;10.40;95.80;;;;;;4900193;29;20259;-76
2022/03/17 09:47:46;;;;;;;34.10;29.23;;;10.40;96.90;;;;;;4900492;29;20183;-76
2022/03/17 09:50:14;;;;;;;37.50;29.25;;;10.40;97.30;;;;;;4900209;29;20239;-76
2022/03/17 09:52:42;;;;;;;33.97;28.42;;;10.40;97.80;;;;;;4899905;29;20569;-76
2022/03/17 09:55:10;;;;;;;49.63;40.85;;;10.60;97.40;;;;;;4899846;29;20211;-77
2022/03/17 09:57:37;;;;;;;34.08;28.45;;;10.20;93.80;;;;;;4900052;29;20299;-76
2022/03/17 10:00:04;;;;;;;35.45;28.55;;;10.50;93.10;;;;;;4899708;29;20194;-76
2022/03/17 10:02:30;;;;;;;33.83;27.23;;;10.30;93.90;;;;;;4899540;29;20183;-76
2022/03/17 10:04:56;;;;;;;33.70;28.27;;;10.80;94.80;;;;;;4900594;29;20203;-77
2022/03/17 10:07:22;;;;;;;37.60;30.15;;;10.80;93.70;;;;;;4899940;29;20191;-77
2022/03/17 10:09:49;;;;;;;34.85;28.55;;;11.10;91.30;;;;;;4899729;29;20187;-76
2022/03/17 10:12:20;;;;;;;32.47;27.17;;;11.00;87.00;;;;;;4899705;29;20284;-77
2022/03/17 10:14:52;;;;;;;35.40;29.20;;;11.10;88.80;;;;;;4900527;29;20658;-77
2022/03/17 10:17:41;;;;;;;39.00;28.00;;;11.20;87.20;;;;;;4899526;29;20211;-76
2022/03/17 10:20:27;;;;;;;32.67;27.17;;;11.40;87.90;;;;;;4899731;29;20180;-77
2022/03/17 10:22:56;;;;;;;40.75;29.30;;;11.50;84.80;;;;;;4899105;29;20650;-77
2022/03/17 10:25:29;;;;;;;40.85;28.95;;;11.40;86.20;;;;;;4899103;29;20682;-77
2022/03/17 10:27:55;;;;;;;35.78;29.98;;;11.40;86.00;;;;;;4898595;29;20535;-77
2022/03/17 10:30:30;;;;;;;36.55;28.55;;;11.40;84.90;;;;;;4899302;29;20190;-77
2022/03/17 10:33:04;;;;;;;35.60;28.05;;;11.50;84.10;;;;;;4898830;29;20186;-77
2022/03/17 10:35:34;;;;;;;36.20;28.20;;;11.50;84.20;;;;;;4898893;29;20207;-76
2022/03/17 10:38:10;;;;;;;33.92;28.23;;;11.60;83.10;;;;;;4898972;29;20634;-76
2022/03/17 10:40:36;;;;;;;31.13;27.70;;;11.50;83.60;;;;;;4899144;29;20171;-76
2022/03/17 10:43:22;;;;;;;36.33;28.40;;;11.70;82.60;;;;;;4899000;29;20175;-76
2022/03/17 10:46:07;;;;;;;32.15;27.02;;;11.70;80.90;;;;;;4899224;29;20286;-77
2022/03/17 10:48:32;;;;;;;36.90;29.33;;;11.50;80.50;;;;;;4898793;29;20175;-77
2022/03/17 10:50:58;;;;;;;37.00;28.65;;;11.60;81.10;;;;;;4900052;29;20723;-77
2022/03/17 10:53:30;;;;;;;40.45;29.52;;;11.60;79.20;;;;;;4898662;29;20183;-77
2022/03/17 10:56:12;;;;;;;33.63;27.92;;;11.70;79.00;;;;;;4899668;29;20231;-77
2022/03/17 10:58:43;;;;;;;40.63;30.02;;;11.70;79.30;;;;;;4898668;29;20239;-76
2022/03/17 11:01:09;;;;;;;38.95;29.80;;;11.90;80.30;;;;;;4898701;29;20194;-76
2022/03/17 11:03:35;;;;;;;37.28;28.90;;;11.90;79.80;;;;;;4898404;29;20187;-77
2022/03/17 11:06:03;;;;;;;46.22;30.10;;;11.80;78.90;;;;;;4898416;29;20199;-77
2022/03/17 11:08:31;;;;;;;34.70;29.02;;;11.80;79.20;;;;;;4899683;29;20239;-77
2022/03/17 11:10:57;;;;;;;33.40;27.98;;;11.80;78.40;;;;;;4898693;29;20274;-76
2022/03/17 11:13:23;;;;;;;32.53;28.10;;;12.10;78.20;;;;;;4899198;29;20194;-77
2022/03/17 11:16:00;;;;;;;36.20;28.05;;;12.10;76.90;;;;;;4898584;29;20199;-77
2022/03/17 11:18:30;;;;;;;33.50;27.90;;;12.00;77.00;;;;;;4898265;29;20199;-76
2022/03/17 11:21:20;;;;;;;36.38;28.55;;;11.90;77.10;;;;;;4898277;29;20263;-77
2022/03/17 11:24:06;;;;;;;33.95;29.23;;;11.80;78.40;;;;;;4898267;29;20711;-76
2022/03/17 11:26:40;;;;;;;31.98;27.38;;;11.90;77.10;;;;;;4897773;29;20207;-76
2022/03/17 11:29:10;;;;;;;40.47;31.73;;;11.80;77.60;;;;;;4897986;29;20663;-76
2022/03/17 11:32:08;;;;;;;34.60;29.90;;;12.10;77.40;;;;;;4897875;29;20318;-77
2022/03/17 11:34:47;;;;;;;39.42;28.52;;;12.30;76.10;;;;;;4890634;29;20199;-77
2022/03/17 11:37:19;;;;;;;34.00;28.20;;;12.50;76.50;;;;;;4898147;29;20203;-76
2022/03/17 11:39:48;;;;;;;42.47;29.75;;;12.30;76.00;;;;;;4897782;29;20238;-76
2022/03/17 11:42:34;;;;;;;41.97;29.05;;;12.20;76.30;;;;;;4898206;29;20175;-76
2022/03/17 11:45:13;;;;;;;32.28;27.95;;;12.20;75.10;;;;;;4899003;29;20255;-76
2022/03/17 11:48:12;;;;;;;33.97;28.67;;;12.20;75.20;;;;;;4898541;29;20191;-76
2022/03/17 11:50:48;;;;;;;36.63;28.27;;;12.50;75.80;;;;;;4897603;29;20214;-77
2022/03/17 11:53:14;;;;;;;32.00;27.35;;;12.70;74.30;;;;;;4897597;29;20223;-77
2022/03/17 11:55:42;;;;;;;31.70;26.85;;;12.80;74.00;;;;;;4896428;29;20207;-78
2022/03/17 11:58:37;;;;;;;35.75;28.50;;;12.70;74.70;;;;;;4897501;29;20199;-76
2022/03/17 12:01:13;;;;;;;34.53;28.23;;;12.90;73.30;;;;;;4898491;29;20176;-76
2022/03/17 12:03:43;;;;;;;35.55;27.25;;;13.00;72.60;;;;;;4897852;29;20186;-76
2022/03/17 12:06:12;;;;;;;31.80;27.02;;;13.10;71.20;;;;;;4897731;29;20203;-76
2022/03/17 12:08:49;;;;;;;32.35;27.15;;;13.00;71.20;;;;;;4897557;29;20187;-76
2022/03/17 12:11:18;;;;;;;33.53;26.50;;;12.90;69.60;;;;;;4898536;29;20329;-77
2022/03/17 12:14:22;;;;;;;32.30;26.80;;;12.90;70.20;;;;;;4897735;29;20639;-76
2022/03/17 12:17:04;;;;;;;32.97;26.77;;;12.80;72.30;;;;;;4897545;29;20195;-76
2022/03/17 12:19:35;;;;;;;34.42;27.67;;;12.90;72.40;;;;;;4898506;29;20701;-76
2022/03/17 12:22:00;;;;;;;32.58;27.23;;;12.70;71.10;;;;;;4898517;29;20180;-77
2022/03/17 12:24:35;;;;;;;32.03;27.42;;;12.60;71.40;;;;;;4897264;29;20233;-76
2022/03/17 12:27:15;;;;;;;33.90;27.95;;;12.40;71.70;;;;;;4897082;29;20186;-77
2022/03/17 12:29:42;;;;;;;37.80;28.33;;;12.20;73.50;;;;;;4897301;29;20176;-76
2022/03/17 12:32:10;;;;;;;31.90;27.75;;;12.20;73.40;;;;;;4897137;29;20214;-76
2022/03/17 12:34:38;;;;;;;33.50;28.35;;;12.00;73.50;;;;;;4897083;29;20183;-77
2022/03/17 12:37:04;;;;;;;32.55;27.52;;;11.90;73.70;;;;;;4897009;29;20210;-76
2022/03/17 12:39:31;;;;;;;32.30;27.38;;;11.90;74.20;;;;;;4897553;29;20203;-76
2022/03/17 12:41:59;;;;;;;34.58;28.33;;;11.90;73.90;;;;;;4897035;29;20184;-76
2022/03/17 12:44:36;;;;;;;38.95;29.38;;;11.90;74.90;;;;;;4897305;29;20220;-77
2022/03/17 12:47:02;;;;;;;37.55;28.20;;;11.90;75.70;;;;;;4896696;29;20175;-77
2022/03/17 12:49:27;;;;;;;33.10;27.00;;;11.90;75.20;;;;;;4896387;29;20180;-77
2022/03/17 12:52:10;;;;;;;37.08;30.15;;;12.00;75.30;;;;;;4898537;29;20183;-77
2022/03/17 12:54:35;;;;;;;36.05;28.55;;;12.30;74.60;;;;;;4901230;29;20182;-77